KXNA/XNA METAR and TAF weather

Enter ICAO airport designator
Station Type Date Time Source
KXNA METAR 2020/01/24 09:20 UTC NOAA

KXNA 240920Z AUTO 30008KT 8SM -SN BKN009 OVC013 01/M01 A2990 RMK AO2 SNB20 CIG 006V011 P0000 T00111006


Station Type Date Time Source
KXNA Decoded METAR 2020/01/24 09:20 UTC NOAA

NORTHWEST ARKANSAS REGIONAL, AR, United States (KXNA) 36-17N 94-18W
Jan 24, 2020 - 04:20 AM EST / 2020.01.24 0920 UTC
Wind: from the WNW (300 degrees) at 9 MPH (8 KT):0
Visibility: 8 mile(s):0
Sky conditions: overcast
Weather: light snow
Precipitation last hour: A trace
Temperature: 34.0 F (1.1 C)
Windchill: 26 F (-3 C):1
Dew Point: 30.9 F (-0.6 C)
Relative Humidity: 88%
Pressure (altimeter): 29.9 in. Hg (1012 hPa)
ob: KXNA 240920Z AUTO 30008KT 8SM -SN BKN009 OVC013 01/M01 A2990 RMK AO2 SNB20 CIG 006V011 P0000 T00111006
cycle: 9

Station Type Date Time Source
KXNA TAF 2020/01/24 06:22 UTC NOAA

TAF KXNA 240520Z 2406/2506 27010KT P6SM BKN016
TEMPO 2406/2410 5SM -RA OVC006
FM241000 30012G18KT 5SM -SN OVC006
TEMPO 2410/2414 2SM -SN
FM241400 29012G20KT P6SM OVC015
FM250100 30005KT P6SM SCT250

Example: see airport list